Time;durP1;ratioP1;P1;durP2;ratioP2;P2;SDS_P1;SDS_P2;PMS_P1;PMS_P2;Temp;Humidity;BMP_temperature;BMP_pressure;BME280_temperature;BME280_humidity;BME280_pressure;Samples;Min_cycle;Max_cycle;Signal;HPM_P1;HPM_P2
2021/01/27 00:00:21;;;;;;;10.85;6.32;;;;;;;5.10;63.23;101641.72;5036745;28;20100;-79
2021/01/27 00:02:48;;;;;;;8.02;5.05;;;;;;;4.92;63.36;101643.19;5037080;28;20026;-78
2021/01/27 00:05:21;;;;;;;10.35;5.70;;;;;;;5.30;62.55;101644.66;5038174;28;20026;-78
2021/01/27 00:07:48;;;;;;;9.95;5.25;;;;;;;4.98;63.44;101642.41;5041185;28;20388;-78
2021/01/27 00:10:16;;;;;;;8.52;5.18;;;;;;;5.26;63.23;101642.81;5038475;28;20420;-78
2021/01/27 00:12:43;;;;;;;9.27;5.70;;;;;;;5.23;63.29;101643.66;5037536;28;20037;-79
2021/01/27 00:15:14;;;;;;;12.95;5.10;;;;;;;5.29;63.27;101633.22;5039285;28;20109;-78
2021/01/27 00:17:41;;;;;;;10.55;5.45;;;;;;;5.23;63.92;101633.13;5037366;28;20109;-78
2021/01/27 00:20:11;;;;;;;10.80;5.68;;;;;;;5.22;63.71;101628.78;5036292;28;20481;-79
2021/01/27 00:22:38;;;;;;;12.93;6.18;;;;;;;5.27;63.64;101623.56;5039324;28;20034;-79
2021/01/27 00:25:05;;;;;;;9.10;5.47;;;;;;;5.19;63.88;101621.69;5038896;28;20117;-78
2021/01/27 00:27:32;;;;;;;10.45;6.05;;;;;;;5.16;64.05;101624.28;5038407;28;20444;-79
2021/01/27 00:29:59;;;;;;;12.52;5.90;;;;;;;5.06;64.68;101611.00;5042217;28;20060;-78
2021/01/27 00:32:28;;;;;;;8.38;5.43;;;;;;;5.14;64.63;101612.00;5037680;28;20073;-78
2021/01/27 00:34:55;;;;;;;10.13;5.75;;;;;;;5.10;65.23;101600.56;5037173;28;20025;-78
2021/01/27 00:37:23;;;;;;;10.27;5.03;;;;;;;5.15;64.79;101590.13;5040914;28;20036;-78
2021/01/27 00:39:49;;;;;;;7.68;5.32;;;;;;;5.01;64.82;101590.81;5037931;28;20044;-78
2021/01/27 00:42:16;;;;;;;9.35;4.85;;;;;;;5.10;64.65;101574.28;5039348;28;20533;-78
2021/01/27 00:44:42;;;;;;;9.95;4.90;;;;;;;5.11;64.72;101565.56;5046102;28;20032;-78
2021/01/27 00:47:09;;;;;;;11.00;5.00;;;;;;;5.23;64.13;101571.84;5052960;28;20464;-78
2021/01/27 00:49:35;;;;;;;6.20;4.70;;;;;;;5.12;64.72;101564.69;5052576;28;20082;-79
2021/01/27 00:52:02;;;;;;;9.93;5.20;;;;;;;4.83;65.74;101572.13;5049891;28;20028;-79
2021/01/27 00:54:28;;;;;;;7.78;4.43;;;;;;;5.17;64.91;101576.16;5041159;28;20025;-78
2021/01/27 00:56:55;;;;;;;9.10;5.18;;;;;;;4.97;65.50;101567.09;5050398;28;20024;-78
2021/01/27 00:59:21;;;;;;;11.27;5.88;;;;;;;5.08;65.41;101559.38;5041864;28;20037;-78
2021/01/27 01:01:47;;;;;;;9.48;5.40;;;;;;;5.17;65.85;101559.50;5054427;28;20388;-78
2021/01/27 01:04:14;;;;;;;7.65;6.00;;;;;;;5.18;65.23;101556.00;5054350;28;20032;-78
2021/01/27 01:06:40;;;;;;;10.88;6.50;;;;;;;5.18;65.86;101554.28;5054407;28;20400;-79
2021/01/27 01:09:07;;;;;;;6.93;5.35;;;;;;;5.19;65.72;101558.66;5053926;28;20104;-78
2021/01/27 01:11:34;;;;;;;11.52;7.63;;;;;;;5.18;66.11;101545.50;5054040;28;20021;-79
2021/01/27 01:14:00;;;;;;;13.48;6.93;;;;;;;5.08;66.82;101533.97;5053976;28;20518;-79
2021/01/27 01:16:27;;;;;;;12.13;8.13;;;;;;;5.19;66.12;101532.38;5054139;28;20408;-78
2021/01/27 01:18:53;;;;;;;13.00;8.60;;;;;;;5.05;67.14;101518.19;5053840;28;20025;-78
2021/01/27 01:21:20;;;;;;;16.52;9.07;;;;;;;5.00;67.59;101514.63;5053889;28;20488;-78
2021/01/27 01:23:46;;;;;;;16.92;9.48;;;;;;;5.04;67.34;101515.56;5053931;28;20033;-78
2021/01/27 01:26:13;;;;;;;12.75;8.68;;;;;;;5.03;67.55;101512.03;5053625;28;20051;-78
2021/01/27 01:28:39;;;;;;;11.20;8.55;;;;;;;5.04;67.85;101498.03;5053624;28;20025;-79
2021/01/27 01:31:06;;;;;;;13.70;9.55;;;;;;;5.01;67.97;101484.88;5053415;28;20033;-79
2021/01/27 01:33:33;;;;;;;17.02;10.57;;;;;;;4.91;68.16;101473.38;5054124;28;20116;-78
2021/01/27 01:36:02;;;;;;;20.25;11.45;;;;;;;4.90;68.53;101470.69;5052891;28;20060;-78
2021/01/27 01:38:28;;;;;;;15.60;11.93;;;;;;;4.85;68.41;101465.41;5053493;28;20059;-78
2021/01/27 01:40:58;;;;;;;18.15;10.77;;;;;;;4.89;68.46;101459.31;5053669;28;20033;-79
2021/01/27 01:43:31;;;;;;;20.42;11.23;;;;;;;4.72;69.56;101456.44;5037466;28;20029;-79
2021/01/27 01:46:00;;;;;;;16.67;10.02;;;;;;;4.76;69.71;101442.53;5045066;28;20053;-78
2021/01/27 01:48:39;;;;;;;15.68;11.05;;;;;;;4.72;69.92;101439.84;5045751;28;20028;-79
2021/01/27 01:53:55;;;;;;;18.13;12.40;;;;;;;4.84;68.84;101425.13;5115628;27;20362;-78
2021/01/27 01:56:32;;;;;;;15.13;10.10;;;;;;;4.81;69.63;101427.72;5110648;28;20082;-78
2021/01/27 01:59:02;;;;;;;18.85;12.02;;;;;;;4.80;69.10;101431.19;5089899;28;20033;-77
2021/01/27 02:01:29;;;;;;;15.38;10.35;;;;;;;4.81;69.62;101430.34;5080114;28;20501;-77
2021/01/27 02:03:56;;;;;;;15.05;11.00;;;;;;;4.73;69.81;101423.22;5090935;28;20396;-78
2021/01/27 02:06:23;;;;;;;12.98;9.68;;;;;;;4.69;69.62;101420.53;5089970;28;20398;-78
2021/01/27 02:08:58;;;;;;;20.45;11.93;;;;;;;4.76;69.63;101411.03;5089737;28;20056;-77
2021/01/27 02:17:41;;;;;;;19.73;10.80;;;;;;;4.71;69.56;101407.47;5122348;27;20679;-78
2021/01/27 02:20:47;;;;;;;15.07;10.60;;;;;;;4.74;69.50;101415.38;5098265;28;20036;-78
2021/01/27 02:29:33;;;;;;;14.95;10.70;;;;;;;4.77;68.90;101412.78;5113724;27;20362;-77
2021/01/27 02:32:39;;;;;;;15.68;9.93;;;;;;;4.74;68.71;101391.75;5106267;28;20040;-78
2021/01/27 02:37:59;;;;;;;11.98;8.40;;;;;;;4.61;69.46;101358.31;5116146;27;20365;-78
2021/01/27 02:40:33;;;;;;;16.30;10.60;;;;;;;4.69;69.20;101356.69;5119203;27;20044;-78
2021/01/27 02:43:12;;;;;;;15.50;9.60;;;;;;;4.83;68.56;101343.72;5116031;28;20451;-78
2021/01/27 02:45:46;;;;;;;13.88;9.95;;;;;;;4.63;69.09;101346.97;5100191;27;20557;-78
2021/01/27 02:48:24;;;;;;;14.95;9.75;;;;;;;4.72;69.15;101343.56;5120307;28;20024;-78
2021/01/27 02:50:59;;;;;;;19.85;10.13;;;;;;;4.56;69.74;101337.28;5096207;28;20024;-78
2021/01/27 02:53:32;;;;;;;16.00;10.38;;;;;;;4.66;69.19;101336.53;5110567;28;20417;-78
2021/01/27 02:58:48;;;;;;;16.95;10.30;;;;;;;4.66;69.39;101333.00;5073119;27;20410;-78
2021/01/27 03:01:52;;;;;;;12.80;9.93;;;;;;;4.64;69.89;101345.25;5062361;28;20087;-78
2021/01/27 03:04:32;;;;;;;12.57;9.23;;;;;;;4.64;69.73;101355.75;5049633;28;20495;-77
2021/01/27 03:07:07;;;;;;;13.27;9.70;;;;;;;4.64;69.90;101353.13;5050011;28;20480;-78
2021/01/27 03:09:46;;;;;;;14.25;9.88;;;;;;;4.73;69.37;101341.84;5048829;28;20399;-78
2021/01/27 03:12:13;;;;;;;12.95;9.73;;;;;;;4.64;69.96;101343.47;5049720;28;20526;-79
2021/01/27 03:14:40;;;;;;;13.85;10.48;;;;;;;4.67;69.58;101340.00;5049576;28;20056;-79
2021/01/27 03:17:14;;;;;;;16.55;10.55;;;;;;;4.63;69.74;101331.22;5049713;28;20033;-79
2021/01/27 03:22:29;;;;;;;15.48;9.93;;;;;;;4.50;69.58;101319.69;5110674;27;20360;-78
2021/01/27 03:25:11;;;;;;;12.85;8.77;;;;;;;4.82;69.53;101311.34;5106024;28;20087;-78
2021/01/27 03:27:50;;;;;;;13.05;8.65;;;;;;;4.70;69.41;101317.31;5104535;28;20032;-78
2021/01/27 03:30:17;;;;;;;11.00;8.20;;;;;;;4.85;68.85;101321.84;5094563;28;20032;-78
2021/01/27 03:33:07;;;;;;;10.93;8.05;;;;;;;4.71;69.93;101307.72;5104527;28;20028;-78
2021/01/27 03:35:54;;;;;;;11.57;8.35;;;;;;;4.76;69.71;101307.75;5088637;28;20024;-78
2021/01/27 03:38:32;;;;;;;9.18;7.55;;;;;;;4.77;69.38;101310.41;5110117;28;20024;-78
2021/01/27 03:41:08;;;;;;;13.27;9.40;;;;;;;4.69;69.09;101298.94;5102053;28;20039;-78
2021/01/27 03:43:59;;;;;;;11.13;8.50;;;;;;;4.78;69.89;101304.28;5095674;28;20024;-78
2021/01/27 03:46:51;;;;;;;10.48;8.07;;;;;;;4.89;68.88;101285.16;5110187;28;20035;-78
2021/01/27 03:49:22;;;;;;;10.60;7.95;;;;;;;4.68;69.27;101287.53;5099052;28;20085;-78
2021/01/27 03:51:58;;;;;;;10.20;9.07;;;;;;;4.82;69.03;101278.94;5094771;28;20125;-78
2021/01/27 03:54:31;;;;;;;11.10;9.27;;;;;;;4.60;69.94;101289.19;5108241;28;20305;-78
2021/01/27 03:57:07;;;;;;;12.57;9.43;;;;;;;4.80;69.18;101281.53;5092130;28;20067;-78
2021/01/27 03:59:34;;;;;;;9.85;8.50;;;;;;;4.79;69.31;101276.28;5096664;28;20038;-78
2021/01/27 04:02:00;;;;;;;11.85;9.57;;;;;;;4.67;69.82;101263.91;5092872;28;20038;-78
2021/01/27 04:04:29;;;;;;;13.32;10.20;;;;;;;4.64;69.89;101261.25;5101521;28;20058;-78
2021/01/27 04:06:56;;;;;;;11.30;9.32;;;;;;;4.61;69.85;101248.97;5105350;28;20023;-78
2021/01/27 04:09:22;;;;;;;13.13;9.35;;;;;;;4.63;70.01;101262.97;5102960;28;20043;-77
2021/01/27 04:11:48;;;;;;;10.63;9.43;;;;;;;4.63;70.17;101262.09;5099415;28;20106;-78
2021/01/27 04:14:15;;;;;;;11.57;9.68;;;;;;;4.72;70.18;101251.69;5108568;28;20028;-78
2021/01/27 04:16:43;;;;;;;12.02;10.60;;;;;;;4.60;70.41;101244.59;5109607;28;20063;-77
2021/01/27 04:19:09;;;;;;;12.15;10.07;;;;;;;4.39;71.08;101226.84;5107566;28;20055;-77
2021/01/27 04:21:36;;;;;;;13.75;11.52;;;;;;;4.56;70.77;101223.53;5104931;28;20592;-77
2021/01/27 04:24:03;;;;;;;15.40;11.10;;;;;;;4.39;71.27;101213.75;5088994;28;20025;-77
2021/01/27 04:26:29;;;;;;;14.23;11.90;;;;;;;4.51;71.03;101205.09;5088981;28;20033;-78
2021/01/27 04:28:56;;;;;;;14.02;11.05;;;;;;;4.56;71.29;101199.91;5090974;28;20035;-77
2021/01/27 04:31:22;;;;;;;13.13;11.00;;;;;;;4.40;71.42;101193.63;5109130;28;20534;-78
2021/01/27 04:33:49;;;;;;;15.43;12.50;;;;;;;4.58;70.99;101200.81;5094879;28;20020;-78
2021/01/27 04:36:15;;;;;;;14.48;11.18;;;;;;;4.36;72.14;101185.72;5095668;28;20112;-77
2021/01/27 04:38:43;;;;;;;16.20;13.63;;;;;;;4.48;71.50;101184.97;5094808;28;20067;-79
2021/01/27 04:41:10;;;;;;;14.32;12.10;;;;;;;4.61;71.54;101182.47;5080569;28;20505;-78
2021/01/27 04:43:41;;;;;;;15.27;12.27;;;;;;;4.46;72.31;101172.69;5086307;28;20031;-78
2021/01/27 04:49:06;;;;;;;16.77;12.98;;;;;;;4.52;71.91;101186.78;5056605;28;20726;-77
2021/01/27 05:01:04;;;;;;;13.73;10.40;;;;;;;4.57;71.68;101183.31;5081546;27;20439;-78
2021/01/27 05:04:03;;;;;;;15.68;11.95;;;;;;;4.66;71.82;101178.13;5069492;28;20120;-77
2021/01/27 05:06:33;;;;;;;11.02;9.63;;;;;;;4.69;71.67;101178.19;5069770;28;20048;-78
2021/01/27 05:11:45;;;;;;;9.70;7.68;;;;;;;4.40;72.37;101149.91;5069838;28;20368;-78
2021/01/27 05:14:16;;;;;;;9.55;7.55;;;;;;;4.51;71.52;101160.50;5063888;28;20033;-78
2021/01/27 05:16:50;;;;;;;8.07;7.07;;;;;;;4.57;71.77;101138.69;5064380;28;20029;-79
2021/01/27 05:19:17;;;;;;;8.68;7.07;;;;;;;4.61;71.90;101141.38;5030103;28;20072;-78
2021/01/27 05:21:55;;;;;;;8.40;7.00;;;;;;;4.53;71.96;101130.78;5043431;28;20046;-78
2021/01/27 05:24:21;;;;;;;9.10;7.25;;;;;;;4.54;71.80;101123.81;5038419;28;20029;-78
2021/01/27 05:27:17;;;;;;;10.85;7.82;;;;;;;4.52;72.25;101123.78;5036255;28;20029;-78
2021/01/27 05:29:54;;;;;;;9.98;8.20;;;;;;;4.72;71.39;101135.34;5048274;28;20033;-77
2021/01/27 05:32:23;;;;;;;8.75;7.82;;;;;;;4.62;71.59;101129.13;5044361;28;20029;-80
2021/01/27 05:34:53;;;;;;;11.18;7.88;;;;;;;4.67;71.54;101127.41;5033133;28;20036;-78
2021/01/27 05:40:10;;;;;;;9.00;6.97;;;;;;;4.56;72.04;101129.06;5077443;28;20432;-78
2021/01/27 05:42:37;;;;;;;9.55;7.25;;;;;;;4.58;72.00;101133.44;5069014;28;20036;-78
2021/01/27 05:45:30;;;;;;;7.75;5.95;;;;;;;4.67;72.36;101141.44;5068594;28;20108;-78
2021/01/27 05:51:13;;;;;;;7.88;6.93;;;;;;;4.66;72.10;101131.78;5116247;27;20369;-77
2021/01/27 05:53:39;;;;;;;10.40;7.32;;;;;;;4.47;72.79;101135.97;5118762;28;20032;-78
2021/01/27 05:56:17;;;;;;;9.60;7.80;;;;;;;4.68;72.47;101130.03;5117512;28;20020;-78
2021/01/27 05:59:06;;;;;;;11.07;8.70;;;;;;;4.53;73.11;101122.91;5122231;28;20371;-78
2021/01/27 06:09:43;;;;;;;11.35;8.38;;;;;;;4.64;72.30;101124.78;5109549;27;20366;-77
2021/01/27 06:17:48;;;;;;;8.35;6.70;;;;;;;4.35;73.12;101110.50;5070361;27;20410;-77
2021/01/27 06:29:30;;;;;;;9.30;7.65;;;;;;;4.62;73.21;101100.25;5088123;27;20171;-77
2021/01/27 06:35:01;;;;;;;9.38;7.20;;;;;;;4.61;72.68;101095.84;5060211;28;20384;-77
2021/01/27 06:40:36;;;;;;;9.75;7.13;;;;;;;4.58;73.13;101101.09;5072861;28;20494;-77
2021/01/27 06:46:27;;;;;;;9.90;7.90;;;;;;;4.72;72.65;101090.72;5076968;27;20394;-78
2021/01/27 06:49:13;;;;;;;9.05;6.45;;;;;;;4.59;73.50;101087.13;5066012;22;20041;-76
2021/01/27 06:52:00;;;;;;;10.55;7.32;;;;;;;4.74;72.31;101067.97;5042060;28;20035;-77
2021/01/27 06:57:44;;;;;;;10.77;7.63;;;;;;;4.72;72.38;101067.94;5097140;27;20719;-77
2021/01/27 07:00:39;;;;;;;9.63;7.72;;;;;;;4.52;73.58;101068.69;5070025;28;20045;-79
2021/01/27 07:12:20;;;;;;;12.40;8.95;;;;;;;4.50;74.09;101041.53;5110925;27;20473;-79
2021/01/27 07:18:00;;;;;;;13.75;10.20;;;;;;;4.73;73.16;101038.22;5092628;27;20382;-78
2021/01/27 07:20:33;;;;;;;15.55;10.30;;;;;;;4.59;73.86;101074.00;5095820;28;20035;-78
2021/01/27 07:23:19;;;;;;;;;;;;;;;4.53;74.13;101094.03;5107988;28;20039;-80
2021/01/27 07:26:09;;;;;;;16.63;10.88;;;;;;;4.73;73.46;101095.09;5098563;28;19921;-78
2021/01/27 07:29:15;;;;;;;18.98;11.88;;;;;;;4.84;73.16;101094.31;5089642;28;20054;-79
2021/01/27 07:31:46;;;;;;;21.25;14.35;;;;;;;4.71;72.92;101087.22;5095651;28;20028;-77
2021/01/27 07:34:20;;;;;;;21.20;14.18;;;;;;;4.69;73.67;101079.31;5091551;28;20025;-78
2021/01/27 07:37:03;;;;;;;22.73;14.73;;;;;;;4.62;74.32;101081.88;5092474;28;20042;-79
2021/01/27 07:42:24;;;;;;;23.40;16.45;;;;;;;4.73;73.71;101080.22;5076423;27;20418;-77
2021/01/27 07:44:57;;;;;;;28.65;18.67;;;;;;;4.78;73.69;101072.38;5066387;28;20119;-78
2021/01/27 07:50:25;;;;;;;25.33;17.13;;;;;;;4.92;73.56;101075.09;5058856;28;20433;-77
2021/01/27 07:55:50;;;;;;;35.85;21.48;;;;;;;4.92;73.63;101081.25;5078201;27;21238;-82
2021/01/27 07:58:24;;;;;;;35.53;21.92;;;;;;;4.97;73.55;101071.66;5052654;28;20034;-77
2021/01/27 08:03:41;;;;;;;36.20;22.42;;;;;;;5.03;73.53;101065.53;5061922;27;751748;-78
2021/01/27 08:06:19;;;;;;;39.33;22.92;;;;;;;5.05;73.97;101071.69;5069632;28;20037;-79
2021/01/27 08:08:58;;;;;;;42.75;24.17;;;;;;;5.08;73.46;101071.69;5051196;28;20087;-81
2021/01/27 08:11:43;;;;;;;41.30;23.85;;;;;;;5.04;74.26;101079.56;5023489;28;20040;-78
2021/01/27 08:14:14;;;;;;;44.17;25.17;;;;;;;5.15;73.35;101089.25;5047602;28;20028;-80
2021/01/27 08:16:43;;;;;;;43.88;24.10;;;;;;;5.10;73.78;101080.47;5046263;28;20040;-78
2021/01/27 08:21:56;;;;;;;45.72;25.88;;;;;;;5.10;74.15;101085.72;5065615;28;20380;-79
2021/01/27 08:27:28;;;;;;;46.35;26.73;;;;;;;5.15;74.27;101077.88;5109447;27;20116;-78
2021/01/27 08:32:34;;;;;;;41.30;24.15;;;;;;;5.20;74.66;101086.69;5067998;28;20373;-77
2021/01/27 08:38:21;;;;;;;42.83;24.45;;;;;;;5.52;73.58;101080.72;5062741;27;20830;-80
2021/01/27 08:40:48;;;;;;;43.72;23.58;;;;;;;5.62;72.80;101081.63;5049554;28;20112;-80
2021/01/27 08:43:15;;;;;;;36.78;22.08;;;;;;;5.45;73.97;101092.94;5049355;28;20031;-81
2021/01/27 08:45:45;;;;;;;36.35;22.02;;;;;;;5.56;73.40;101089.47;5060834;28;20064;-80
2021/01/27 08:48:15;;;;;;;34.40;20.75;;;;;;;5.52;73.72;101083.34;5052294;28;20075;-80
2021/01/27 08:50:47;;;;;;;39.50;22.00;;;;;;;5.59;73.55;101073.72;5059561;28;20033;-84
2021/01/27 08:55:59;;;;;;;36.35;21.08;;;;;;;5.63;73.62;101075.50;5122237;27;20413;-81
2021/01/27 08:58:37;;;;;;;32.47;20.65;;;;;;;5.72;73.38;101086.06;5124645;27;20461;-81
2021/01/27 09:06:37;;;;;;;39.45;22.63;;;;;;;5.77;73.64;101093.94;5069840;27;20448;-83
2021/01/27 09:12:00;;;;;;;39.00;22.98;;;;;;;5.85;73.83;101097.50;5064960;27;20870;-81
2021/01/27 09:14:27;;;;;;;39.47;22.08;;;;;;;5.67;74.51;101099.19;5061924;28;20072;-82
2021/01/27 09:16:54;;;;;;;54.63;29.67;;;;;;;5.92;73.58;101104.53;5049087;28;20021;-82
2021/01/27 09:19:24;;;;;;;43.45;22.95;;;;;;;6.04;73.40;101111.59;5065996;28;20033;-79
2021/01/27 09:25:11;;;;;;;38.45;22.90;;;;;;;5.94;73.74;101113.31;5109597;27;20370;-79
2021/01/27 09:27:37;;;;;;;39.70;23.63;;;;;;;5.94;74.17;101117.69;5107333;28;20047;-79
2021/01/27 09:30:13;;;;;;;43.85;23.67;;;;;;;5.97;74.12;101122.97;5104414;28;20419;-79
2021/01/27 09:32:39;;;;;;;42.75;22.77;;;;;;;6.01;73.89;101127.41;5108515;28;20020;-80
2021/01/27 09:35:10;;;;;;;42.42;24.48;;;;;;;6.18;73.40;101131.81;5101553;28;20467;-79
2021/01/27 09:37:44;;;;;;;47.20;24.48;;;;;;;6.18;73.72;101137.09;5089666;28;20036;-80
2021/01/27 09:40:27;;;;;;;51.20;25.23;;;;;;;6.24;73.43;101131.84;5089941;28;20120;-79
2021/01/27 09:42:59;;;;;;;51.05;25.67;;;;;;;6.40;73.13;101128.34;5089923;28;20056;-82
2021/01/27 09:45:29;;;;;;;50.15;27.58;;;;;;;6.43;73.16;101132.75;5090851;28;20035;-79
2021/01/27 09:47:57;;;;;;;56.15;28.20;;;;;;;6.47;73.18;101135.41;5087970;22;20033;-83
2021/01/27 09:50:29;;;;;;;52.80;27.65;;;;;;;6.39;73.56;101134.53;5045963;28;20116;-78
2021/01/27 09:52:59;;;;;;;56.45;27.80;;;;;;;6.56;72.96;101138.94;5049629;28;20025;-79
2021/01/27 09:55:26;;;;;;;56.33;28.15;;;;;;;6.51;73.36;101145.94;5048431;28;20064;-79
2021/01/27 09:57:54;;;;;;;52.42;27.23;;;;;;;6.59;72.98;101149.44;5048755;28;20025;-79
2021/01/27 10:03:19;;;;;;;55.95;28.10;;;;;;;6.74;72.96;101148.59;5041838;28;20419;-79
2021/01/27 10:05:45;;;;;;;52.53;26.35;;;;;;;6.75;72.92;101153.88;5022306;28;20105;-81
2021/01/27 10:08:26;;;;;;;53.35;28.15;;;;;;;6.84;73.09;101145.09;5023444;28;20033;-78
2021/01/27 10:11:32;;;;;;;56.35;28.23;;;;;;;6.84;72.91;101149.47;5007112;28;20038;-78
2021/01/27 10:14:04;;;;;;;56.50;27.92;;;;;;;6.79;73.23;101153.00;5023911;28;20038;-79
2021/01/27 10:16:33;;;;;;;60.00;29.23;;;;;;;6.84;73.09;101152.09;5025603;28;20511;-79
2021/01/27 10:19:04;;;;;;;53.50;27.77;;;;;;;6.88;72.92;101165.28;5025355;28;20068;-80
2021/01/27 10:21:31;;;;;;;54.28;28.25;;;;;;;6.89;73.10;101172.31;5026335;28;20041;-79
2021/01/27 10:23:57;;;;;;;53.58;28.02;;;;;;;7.00;72.60;101167.03;5021931;28;20058;-80
2021/01/27 10:31:55;;;;;;;58.17;29.88;;;;;;;7.19;72.80;101177.56;5066078;28;20420;-80
2021/01/27 10:34:40;;;;;;;51.97;28.45;;;;;;;7.27;72.72;101173.19;5043592;28;20049;-80
2021/01/27 10:37:43;;;;;;;55.15;28.17;;;;;;;7.32;73.02;101171.41;5047604;28;20029;-83
2021/01/27 10:40:26;;;;;;;;;;;;;;;7.41;72.46;101166.13;5028399;28;20033;-81
2021/01/27 10:45:38;;;;;;;56.38;29.15;;;;;;;7.39;72.61;101170.53;5066810;27;20413;-78
2021/01/27 10:51:00;;;;;;;48.05;26.65;;;;;;;7.51;73.09;101179.28;5073216;27;20443;-78
2021/01/27 10:53:30;;;;;;;56.00;28.38;;;;;;;7.59;72.49;101172.25;5056623;28;20395;-79
2021/01/27 10:55:57;;;;;;;56.70;29.40;;;;;;;7.68;72.14;101168.72;5058668;28;20035;-79
2021/01/27 10:58:24;;;;;;;51.40;28.13;;;;;;;7.67;72.86;101167.81;5059553;28;20408;-78
2021/01/27 11:00:51;;;;;;;56.67;28.58;;;;;;;7.69;72.69;101175.72;5059909;28;20029;-78
2021/01/27 11:03:17;;;;;;;48.28;26.33;;;;;;;7.77;72.79;101172.19;5060846;28;20136;-79
2021/01/27 11:05:44;;;;;;;66.55;29.30;;;;;;;7.80;73.00;101170.41;5060545;28;20480;-81
2021/01/27 11:08:14;;;;;;;50.15;28.98;;;;;;;7.89;72.48;101159.84;5057060;28;20459;-79
2021/01/27 11:10:40;;;;;;;55.83;28.17;;;;;;;7.72;72.97;101168.69;5054292;28;20041;-82
2021/01/27 11:13:07;;;;;;;48.95;27.85;;;;;;;7.86;73.14;101163.38;5053574;28;20036;-80
2021/01/27 11:15:33;;;;;;;50.20;26.98;;;;;;;7.86;72.54;101159.84;5063423;28;20116;-83
2021/01/27 11:17:59;;;;;;;54.20;29.27;;;;;;;7.89;72.76;101171.28;5061631;28;20434;-83
2021/01/27 11:20:29;;;;;;;54.47;30.42;;;;;;;7.95;72.63;101165.09;5067019;28;20029;-83
2021/01/27 11:22:55;;;;;;;60.35;31.38;;;;;;;7.87;72.58;101172.16;5051722;28;20040;-81
2021/01/27 11:25:25;;;;;;;57.95;30.10;;;;;;;7.85;73.05;101168.63;5049171;28;20071;-82
2021/01/27 11:27:51;;;;;;;49.92;29.92;;;;;;;7.99;71.95;101174.75;5049036;28;20078;-82
2021/01/27 11:30:21;;;;;;;60.70;28.23;;;;;;;7.89;71.81;101175.69;5050759;28;20029;-81
2021/01/27 11:32:48;;;;;;;54.85;31.23;;;;;;;8.01;72.11;101166.81;5067526;28;20109;-81
2021/01/27 11:35:16;;;;;;;60.03;30.08;;;;;;;7.92;72.33;101170.38;5065793;28;20371;-81
2021/01/27 11:37:43;;;;;;;59.88;30.90;;;;;;;7.93;72.08;101162.44;5063084;28;20033;-81
2021/01/27 11:40:10;;;;;;;58.40;32.33;;;;;;;8.02;72.20;101166.81;5064828;28;20021;-81
2021/01/27 11:42:36;;;;;;;61.30;31.30;;;;;;;8.02;71.96;101166.81;5065868;28;20028;-81
2021/01/27 11:45:05;;;;;;;67.95;33.72;;;;;;;8.18;72.18;101161.47;5064111;28;20036;-81
2021/01/27 11:47:31;;;;;;;60.10;31.92;;;;;;;8.22;72.09;101163.22;5055205;28;20098;-83
2021/01/27 11:49:58;;;;;;;59.42;31.25;;;;;;;8.28;71.46;101157.03;5053397;28;20053;-76
2021/01/27 11:52:24;;;;;;;66.78;32.75;;;;;;;8.24;72.16;101159.69;5053498;28;20030;-80
2021/01/27 11:54:50;;;;;;;60.78;30.35;;;;;;;8.32;72.16;101154.34;5060102;28;20038;-80
2021/01/27 11:57:18;;;;;;;58.10;30.83;;;;;;;8.36;72.30;101166.66;5054177;28;20056;-80
2021/01/27 11:59:45;;;;;;;58.15;30.27;;;;;;;8.46;71.92;101163.97;5055005;28;20105;-80
2021/01/27 12:02:11;;;;;;;57.88;32.78;;;;;;;8.47;72.26;101163.09;5032400;28;20059;-80
2021/01/27 12:04:40;;;;;;;60.33;31.10;;;;;;;8.58;71.98;101167.47;5035374;28;20052;-81
2021/01/27 12:07:06;;;;;;;65.68;33.97;;;;;;;8.59;71.60;101157.75;5034640;28;20546;-81
2021/01/27 12:09:35;;;;;;;73.43;36.72;;;;;;;8.63;71.53;101163.91;5033943;28;20108;-81
2021/01/27 12:12:02;;;;;;;62.78;30.27;;;;;;;8.67;71.88;101160.34;5040939;28;20095;-80
2021/01/27 12:14:29;;;;;;;61.33;29.63;;;;;;;8.74;72.10;101162.91;5047829;28;20448;-80
2021/01/27 12:16:55;;;;;;;59.67;29.42;;;;;;;8.79;71.74;101159.38;5051181;28;20413;-81
2021/01/27 12:19:21;;;;;;;55.17;28.55;;;;;;;8.82;71.84;101156.69;5053772;28;20033;-79
2021/01/27 12:21:47;;;;;;;56.00;28.33;;;;;;;8.88;72.15;101154.00;5047238;28;20061;-81
2021/01/27 12:24:13;;;;;;;56.60;27.60;;;;;;;8.98;72.11;101149.53;5038285;28;20499;-81
2021/01/27 12:26:42;;;;;;;51.88;26.50;;;;;;;9.04;71.81;101155.63;5046692;28;20033;-81
2021/01/27 12:29:08;;;;;;;50.80;25.30;;;;;;;9.15;71.73;101154.69;5052760;28;20056;-81
2021/01/27 12:31:35;;;;;;;41.58;23.02;;;;;;;9.22;71.76;101153.72;5043252;28;20099;-80
2021/01/27 12:34:01;;;;;;;48.75;23.30;;;;;;;9.23;71.42;101166.03;5045111;28;20028;-81
2021/01/27 12:36:28;;;;;;;45.05;22.65;;;;;;;9.32;71.20;101168.63;5045494;28;20112;-80
2021/01/27 12:38:54;;;;;;;36.22;20.83;;;;;;;9.37;71.59;101168.56;5052885;28;20033;-80
2021/01/27 12:41:21;;;;;;;45.50;24.05;;;;;;;9.44;71.37;101161.44;5041457;28;20607;-79
2021/01/27 12:43:47;;;;;;;45.65;23.33;;;;;;;9.45;70.85;101166.72;5046257;28;20029;-79
2021/01/27 12:46:14;;;;;;;38.92;18.92;;;;;;;9.39;71.53;101169.41;5044585;28;20087;-78
2021/01/27 12:48:40;;;;;;;32.28;17.85;;;;;;;9.49;71.45;101175.50;5047771;28;20029;-77
2021/01/27 12:51:06;;;;;;;36.83;18.10;;;;;;;9.48;71.45;101165.81;5042026;28;20029;-78
2021/01/27 12:53:33;;;;;;;35.58;17.33;;;;;;;9.45;71.46;101176.44;5036872;28;20495;-80
2021/01/27 12:55:59;;;;;;;35.13;18.02;;;;;;;9.37;71.33;101169.44;5040296;28;20022;-79
2021/01/27 12:58:25;;;;;;;36.50;18.23;;;;;;;9.36;71.44;101178.25;5048380;28;20029;-78
2021/01/27 13:00:51;;;;;;;39.60;18.33;;;;;;;9.45;71.29;101179.06;5048563;28;20032;-78
2021/01/27 13:03:17;;;;;;;33.10;18.08;;;;;;;9.37;71.23;101180.03;5051619;28;20040;-79
2021/01/27 13:05:44;;;;;;;39.83;19.23;;;;;;;9.46;70.94;101173.75;5044091;28;20064;-80
2021/01/27 13:08:10;;;;;;;31.85;17.27;;;;;;;9.38;71.14;101179.13;5052546;28;20029;-79
2021/01/27 13:10:41;;;;;;;31.63;17.63;;;;;;;9.51;71.26;101185.16;5050102;28;20021;-80
2021/01/27 13:13:09;;;;;;;31.30;17.20;;;;;;;9.57;70.72;101178.06;5044707;28;20021;-80
2021/01/27 13:15:35;;;;;;;31.08;17.00;;;;;;;9.55;70.88;101178.09;5045494;28;20044;-81
2021/01/27 13:18:02;;;;;;;33.00;17.30;;;;;;;9.62;70.74;101174.50;5042387;28;20029;-80
2021/01/27 13:20:28;;;;;;;31.92;17.75;;;;;;;9.68;71.04;101177.06;5036565;28;20025;-79
2021/01/27 13:22:54;;;;;;;34.28;17.98;;;;;;;9.70;70.79;101177.91;5051401;28;20494;-82
2021/01/27 13:25:23;;;;;;;33.08;16.20;;;;;;;9.72;71.02;101185.84;5050257;28;20080;-80
2021/01/27 13:27:50;;;;;;;31.25;15.82;;;;;;;9.58;70.81;101174.53;5038921;28;20038;-81
2021/01/27 13:30:19;;;;;;;27.23;15.10;;;;;;;9.60;70.00;101176.25;5043172;28;20036;-81
2021/01/27 13:32:46;;;;;;;26.55;15.30;;;;;;;9.86;70.22;101175.09;5049894;28;20032;-80
2021/01/27 13:35:17;;;;;;;31.35;14.88;;;;;;;9.95;70.12;101171.47;5048123;28;20391;-80
2021/01/27 13:37:43;;;;;;;21.60;13.23;;;;;;;9.98;69.62;101164.38;5051437;28;20070;-80
2021/01/27 13:40:10;;;;;;;25.63;12.60;;;;;;;9.97;69.84;101164.38;5051763;28;20017;-80
2021/01/27 13:42:37;;;;;;;21.83;13.05;;;;;;;10.05;69.46;101159.88;5050344;28;20082;-81
2021/01/27 13:45:06;;;;;;;27.25;12.25;;;;;;;10.05;68.70;101165.16;5050257;28;20060;-79
2021/01/27 13:47:32;;;;;;;29.15;14.13;;;;;;;10.20;69.15;101166.72;5050432;28;20021;-79
2021/01/27 13:49:58;;;;;;;24.50;12.93;;;;;;;10.23;69.36;101166.72;5046480;28;20032;-79
2021/01/27 13:52:25;;;;;;;20.90;11.90;;;;;;;10.31;69.10;101167.47;5051315;28;20045;-79
2021/01/27 13:54:51;;;;;;;24.00;12.23;;;;;;;10.35;68.92;101158.59;5051213;28;20408;-80
2021/01/27 13:57:17;;;;;;;22.20;11.02;;;;;;;10.30;68.65;101157.75;5043952;28;20036;-80
2021/01/27 13:59:44;;;;;;;19.85;9.75;;;;;;;10.22;68.87;101153.47;5046739;28;20033;-80
2021/01/27 14:02:10;;;;;;;20.05;10.15;;;;;;;10.35;68.14;101155.94;5051973;28;20040;-79